sensor_id;sensor_type;location;lat;lon;timestamp;P1;durP1;ratioP1;P2;durP2;ratioP2
5630;SDS011;2837;50.990;7.124;2024-02-21T06:01:57;162.80;;;11.07;;
5630;SDS011;2837;50.990;7.124;2024-02-21T06:04:23;162.23;;;10.70;;
5630;SDS011;2837;50.990;7.124;2024-02-21T06:06:48;162.17;;;10.80;;
5630;SDS011;2837;50.990;7.124;2024-02-21T06:09:14;161.20;;;10.75;;
5630;SDS011;2837;50.990;7.124;2024-02-21T06:11:40;162.18;;;10.63;;
5630;SDS011;2837;50.990;7.124;2024-02-21T06:14:05;161.77;;;11.30;;
5630;SDS011;2837;50.990;7.124;2024-02-21T06:16:31;161.80;;;10.50;;
5630;SDS011;2837;50.990;7.124;2024-02-21T06:18:56;159.88;;;11.20;;
5630;SDS011;2837;50.990;7.124;2024-02-21T06:21:22;163.63;;;10.80;;
5630;SDS011;2837;50.990;7.124;2024-02-21T06:23:47;161.95;;;11.20;;
5630;SDS011;2837;50.990;7.124;2024-02-21T06:26:13;161.80;;;10.50;;
5630;SDS011;2837;50.990;7.124;2024-02-21T06:28:39;161.83;;;10.67;;
5630;SDS011;2837;50.990;7.124;2024-02-21T06:31:04;160.00;;;10.35;;
5630;SDS011;2837;50.990;7.124;2024-02-21T06:33:30;163.90;;;11.50;;
5630;SDS011;2837;50.990;7.124;2024-02-21T06:35:55;164.40;;;11.13;;
5630;SDS011;2837;50.990;7.124;2024-02-21T06:38:21;163.32;;;11.30;;
5630;SDS011;2837;50.990;7.124;2024-02-21T06:40:47;165.50;;;10.27;;
5630;SDS011;2837;50.990;7.124;2024-02-21T06:43:16;161.80;;;10.37;;
5630;SDS011;2837;50.990;7.124;2024-02-21T06:45:43;160.93;;;10.50;;
5630;SDS011;2837;50.990;7.124;2024-02-21T06:48:12;162.40;;;10.85;;
5630;SDS011;2837;50.990;7.124;2024-02-21T06:50:38;160.80;;;10.98;;
5630;SDS011;2837;50.990;7.124;2024-02-21T06:53:03;161.23;;;10.02;;
5630;SDS011;2837;50.990;7.124;2024-02-21T06:55:29;164.27;;;10.50;;
5630;SDS011;2837;50.990;7.124;2024-02-21T06:57:54;161.65;;;10.05;;
5630;SDS011;2837;50.990;7.124;2024-02-21T07:00:20;159.30;;;10.47;;
5630;SDS011;2837;50.990;7.124;2024-02-21T07:02:46;160.20;;;10.60;;
5630;SDS011;2837;50.990;7.124;2024-02-21T07:05:13;159.43;;;9.43;;
5630;SDS011;2837;50.990;7.124;2024-02-21T07:07:39;163.30;;;10.80;;
5630;SDS011;2837;50.990;7.124;2024-02-21T07:10:05;161.25;;;10.48;;
5630;SDS011;2837;50.990;7.124;2024-02-21T07:12:31;160.50;;;10.10;;
5630;SDS011;2837;50.990;7.124;2024-02-21T07:14:57;160.32;;;10.05;;
5630;SDS011;2837;50.990;7.124;2024-02-21T07:17:23;161.43;;;10.95;;
5630;SDS011;2837;50.990;7.124;2024-02-21T07:19:48;160.57;;;10.03;;
5630;SDS011;2837;50.990;7.124;2024-02-21T07:22:14;161.55;;;10.65;;
5630;SDS011;2837;50.990;7.124;2024-02-21T07:24:40;161.37;;;10.33;;
5630;SDS011;2837;50.990;7.124;2024-02-21T07:27:05;160.10;;;10.70;;
5630;SDS011;2837;50.990;7.124;2024-02-21T07:29:31;161.30;;;10.20;;
5630;SDS011;2837;50.990;7.124;2024-02-21T07:31:57;160.33;;;10.43;;
5630;SDS011;2837;50.990;7.124;2024-02-21T07:34:23;160.93;;;10.20;;
5630;SDS011;2837;50.990;7.124;2024-02-21T07:36:48;161.13;;;10.35;;
5630;SDS011;2837;50.990;7.124;2024-02-21T07:39:14;160.90;;;10.07;;
5630;SDS011;2837;50.990;7.124;2024-02-21T07:41:41;160.85;;;10.00;;
5630;SDS011;2837;50.990;7.124;2024-02-21T07:44:09;160.80;;;10.50;;
5630;SDS011;2837;50.990;7.124;2024-02-21T07:46:35;161.88;;;9.90;;
5630;SDS011;2837;50.990;7.124;2024-02-21T07:49:01;161.23;;;10.20;;
5630;SDS011;2837;50.990;7.124;2024-02-21T07:51:28;161.45;;;10.20;;
5630;SDS011;2837;50.990;7.124;2024-02-21T07:53:54;159.95;;;10.00;;
5630;SDS011;2837;50.990;7.124;2024-02-21T07:56:20;160.17;;;10.23;;
5630;SDS011;2837;50.990;7.124;2024-02-21T07:58:46;160.33;;;10.00;;
5630;SDS011;2837;50.990;7.124;2024-02-21T08:01:11;161.25;;;9.80;;
5630;SDS011;2837;50.990;7.124;2024-02-21T08:03:45;161.82;;;10.13;;
5630;SDS011;2837;50.990;7.124;2024-02-21T08:06:11;162.93;;;10.57;;
5630;SDS011;2837;50.990;7.124;2024-02-21T08:08:38;160.23;;;9.93;;
5630;SDS011;2837;50.990;7.124;2024-02-21T08:11:04;160.93;;;10.20;;
5630;SDS011;2837;50.990;7.124;2024-02-21T08:13:29;161.80;;;10.75;;
5630;SDS011;2837;50.990;7.124;2024-02-21T08:15:55;162.55;;;10.90;;
5630;SDS011;2837;50.990;7.124;2024-02-21T08:18:22;161.45;;;10.77;;
5630;SDS011;2837;50.990;7.124;2024-02-21T08:20:47;163.18;;;10.85;;
5630;SDS011;2837;50.990;7.124;2024-02-21T08:23:15;162.80;;;10.45;;
5630;SDS011;2837;50.990;7.124;2024-02-21T08:25:41;162.55;;;9.80;;
5630;SDS011;2837;50.990;7.124;2024-02-21T08:28:07;164.02;;;11.15;;
5630;SDS011;2837;50.990;7.124;2024-02-21T08:30:33;159.65;;;10.27;;
5630;SDS011;2837;50.990;7.124;2024-02-21T08:32:59;162.02;;;10.63;;
5630;SDS011;2837;50.990;7.124;2024-02-21T08:35:25;160.02;;;10.25;;
5630;SDS011;2837;50.990;7.124;2024-02-21T08:37:50;161.50;;;10.70;;
5630;SDS011;2837;50.990;7.124;2024-02-21T08:40:16;162.20;;;10.53;;
5630;SDS011;2837;50.990;7.124;2024-02-21T08:42:46;159.48;;;9.80;;
5630;SDS011;2837;50.990;7.124;2024-02-21T08:45:12;161.05;;;9.70;;
5630;SDS011;2837;50.990;7.124;2024-02-21T08:47:41;161.52;;;10.50;;
5630;SDS011;2837;50.990;7.124;2024-02-21T08:50:07;163.15;;;10.55;;
5630;SDS011;2837;50.990;7.124;2024-02-21T08:52:36;160.60;;;10.07;;
5630;SDS011;2837;50.990;7.124;2024-02-21T08:55:02;160.80;;;9.30;;
5630;SDS011;2837;50.990;7.124;2024-02-21T08:57:28;160.63;;;10.57;;
5630;SDS011;2837;50.990;7.124;2024-02-21T08:59:54;161.07;;;10.45;;
5630;SDS011;2837;50.990;7.124;2024-02-21T09:02:19;160.18;;;10.30;;
5630;SDS011;2837;50.990;7.124;2024-02-21T09:04:45;160.70;;;9.90;;
5630;SDS011;2837;50.990;7.124;2024-02-21T09:07:10;162.57;;;10.40;;
5630;SDS011;2837;50.990;7.124;2024-02-21T09:09:36;160.20;;;10.20;;
5630;SDS011;2837;50.990;7.124;2024-02-21T09:12:06;162.00;;;10.50;;
5630;SDS011;2837;50.990;7.124;2024-02-21T09:14:32;161.50;;;9.93;;
5630;SDS011;2837;50.990;7.124;2024-02-21T09:16:58;160.93;;;9.85;;
5630;SDS011;2837;50.990;7.124;2024-02-21T09:19:24;159.63;;;10.05;;
5630;SDS011;2837;50.990;7.124;2024-02-21T09:21:49;162.23;;;11.10;;
5630;SDS011;2837;50.990;7.124;2024-02-21T09:24:15;161.03;;;10.13;;
5630;SDS011;2837;50.990;7.124;2024-02-21T09:26:41;162.23;;;10.23;;
5630;SDS011;2837;50.990;7.124;2024-02-21T09:29:07;158.40;;;9.38;;
5630;SDS011;2837;50.990;7.124;2024-02-21T09:31:33;161.00;;;10.27;;
5630;SDS011;2837;50.990;7.124;2024-02-21T09:33:58;162.15;;;9.48;;
5630;SDS011;2837;50.990;7.124;2024-02-21T09:36:24;161.38;;;10.40;;
5630;SDS011;2837;50.990;7.124;2024-02-21T09:38:50;159.70;;;9.80;;
5630;SDS011;2837;50.990;7.124;2024-02-21T09:41:16;158.90;;;9.90;;
5630;SDS011;2837;50.990;7.124;2024-02-21T09:43:50;159.93;;;10.77;;
5630;SDS011;2837;50.990;7.124;2024-02-21T09:46:18;159.77;;;10.60;;
5630;SDS011;2837;50.990;7.124;2024-02-21T09:51:20;162.27;;;9.90;;
5630;SDS011;2837;50.990;7.124;2024-02-21T09:53:47;159.20;;;10.10;;
5630;SDS011;2837;50.990;7.124;2024-02-21T09:56:14;160.95;;;10.30;;
5630;SDS011;2837;50.990;7.124;2024-02-21T09:58:40;163.68;;;10.20;;
5630;SDS011;2837;50.990;7.124;2024-02-21T10:01:06;160.07;;;10.35;;
5630;SDS011;2837;50.990;7.124;2024-02-21T10:03:32;160.63;;;10.70;;
5630;SDS011;2837;50.990;7.124;2024-02-21T10:05:58;160.20;;;9.90;;
5630;SDS011;2837;50.990;7.124;2024-02-21T10:08:27;160.20;;;10.30;;
5630;SDS011;2837;50.990;7.124;2024-02-21T10:10:53;160.20;;;9.20;;
5630;SDS011;2837;50.990;7.124;2024-02-21T10:13:25;159.40;;;9.95;;
5630;SDS011;2837;50.990;7.124;2024-02-21T10:16:02;159.63;;;10.43;;
5630;SDS011;2837;50.990;7.124;2024-02-21T10:18:28;159.18;;;10.13;;
5630;SDS011;2837;50.990;7.124;2024-02-21T10:21:00;160.48;;;10.18;;
5630;SDS011;2837;50.990;7.124;2024-02-21T10:23:40;157.90;;;9.40;;
5630;SDS011;2837;50.990;7.124;2024-02-21T10:26:10;160.02;;;9.82;;
5630;SDS011;2837;50.990;7.124;2024-02-21T10:28:36;160.07;;;10.25;;
5630;SDS011;2837;50.990;7.124;2024-02-21T10:31:06;161.18;;;9.90;;
5630;SDS011;2837;50.990;7.124;2024-02-21T10:33:36;158.30;;;8.90;;
5630;SDS011;2837;50.990;7.124;2024-02-21T10:36:08;159.73;;;9.60;;
5630;SDS011;2837;50.990;7.124;2024-02-21T10:38:35;160.75;;;9.52;;
5630;SDS011;2837;50.990;7.124;2024-02-21T10:41:05;158.70;;;9.10;;
5630;SDS011;2837;50.990;7.124;2024-02-21T10:43:33;159.87;;;10.37;;
5630;SDS011;2837;50.990;7.124;2024-02-21T10:46:05;161.52;;;9.18;;
5630;SDS011;2837;50.990;7.124;2024-02-21T10:48:44;157.52;;;9.52;;
5630;SDS011;2837;50.990;7.124;2024-02-21T10:51:14;158.38;;;9.30;;
5630;SDS011;2837;50.990;7.124;2024-02-21T10:53:44;158.88;;;9.43;;
5630;SDS011;2837;50.990;7.124;2024-02-21T10:56:22;159.00;;;9.35;;
5630;SDS011;2837;50.990;7.124;2024-02-21T10:59:00;159.73;;;9.75;;
5630;SDS011;2837;50.990;7.124;2024-02-21T11:01:28;157.88;;;9.25;;
5630;SDS011;2837;50.990;7.124;2024-02-21T11:03:56;161.95;;;9.43;;
5630;SDS011;2837;50.990;7.124;2024-02-21T11:06:24;158.05;;;9.68;;
5630;SDS011;2837;50.990;7.124;2024-02-21T11:09:03;158.45;;;9.38;;
5630;SDS011;2837;50.990;7.124;2024-02-21T11:11:32;156.80;;;8.80;;
5630;SDS011;2837;50.990;7.124;2024-02-21T11:14:06;158.45;;;9.57;;
5630;SDS011;2837;50.990;7.124;2024-02-21T11:16:41;160.38;;;9.85;;
5630;SDS011;2837;50.990;7.124;2024-02-21T11:19:10;159.52;;;9.60;;
5630;SDS011;2837;50.990;7.124;2024-02-21T11:21:45;159.07;;;10.00;;
5630;SDS011;2837;50.990;7.124;2024-02-21T11:24:12;158.15;;;9.50;;
5630;SDS011;2837;50.990;7.124;2024-02-21T11:26:39;159.20;;;9.65;;
5630;SDS011;2837;50.990;7.124;2024-02-21T11:29:07;156.45;;;8.80;;
5630;SDS011;2837;50.990;7.124;2024-02-21T11:31:41;158.13;;;9.50;;
5630;SDS011;2837;50.990;7.124;2024-02-21T11:34:11;157.43;;;9.50;;
5630;SDS011;2837;50.990;7.124;2024-02-21T11:36:55;157.30;;;8.57;;
5630;SDS011;2837;50.990;7.124;2024-02-21T11:39:21;156.95;;;9.27;;
5630;SDS011;2837;50.990;7.124;2024-02-21T11:44:45;160.93;;;8.32;;
5630;SDS011;2837;50.990;7.124;2024-02-21T11:47:10;156.20;;;8.70;;
5630;SDS011;2837;50.990;7.124;2024-02-21T11:49:43;159.82;;;9.45;;
5630;SDS011;2837;50.990;7.124;2024-02-21T11:52:11;159.40;;;9.25;;
5630;SDS011;2837;50.990;7.124;2024-02-21T11:54:39;159.63;;;9.20;;
5630;SDS011;2837;50.990;7.124;2024-02-21T11:57:05;157.10;;;8.93;;
5630;SDS011;2837;50.990;7.124;2024-02-21T11:59:30;157.60;;;9.60;;
5630;SDS011;2837;50.990;7.124;2024-02-21T12:01:58;157.27;;;8.60;;
5630;SDS011;2837;50.990;7.124;2024-02-21T12:04:28;159.43;;;9.40;;
5630;SDS011;2837;50.990;7.124;2024-02-21T12:06:56;158.70;;;9.68;;
5630;SDS011;2837;50.990;7.124;2024-02-21T12:09:23;161.17;;;9.23;;
5630;SDS011;2837;50.990;7.124;2024-02-21T12:14:25;160.13;;;9.35;;
5630;SDS011;2837;50.990;7.124;2024-02-21T12:16:51;156.95;;;8.90;;
5630;SDS011;2837;50.990;7.124;2024-02-21T12:19:17;157.70;;;8.30;;
5630;SDS011;2837;50.990;7.124;2024-02-21T12:21:43;156.75;;;8.93;;
5630;SDS011;2837;50.990;7.124;2024-02-21T12:26:39;156.63;;;9.38;;
5630;SDS011;2837;50.990;7.124;2024-02-21T12:29:05;156.35;;;9.80;;
5630;SDS011;2837;50.990;7.124;2024-02-21T12:31:31;156.60;;;9.33;;
5630;SDS011;2837;50.990;7.124;2024-02-21T12:33:56;158.10;;;10.07;;
5630;SDS011;2837;50.990;7.124;2024-02-21T12:36:22;158.75;;;9.00;;
5630;SDS011;2837;50.990;7.124;2024-02-21T12:38:48;157.52;;;9.15;;
5630;SDS011;2837;50.990;7.124;2024-02-21T12:41:15;155.80;;;8.52;;
5630;SDS011;2837;50.990;7.124;2024-02-21T12:43:40;157.88;;;9.43;;
5630;SDS011;2837;50.990;7.124;2024-02-21T12:46:06;157.93;;;9.90;;
5630;SDS011;2837;50.990;7.124;2024-02-21T12:48:33;158.45;;;9.38;;
5630;SDS011;2837;50.990;7.124;2024-02-21T12:50:59;158.20;;;9.88;;
5630;SDS011;2837;50.990;7.124;2024-02-21T12:53:24;156.85;;;9.25;;
5630;SDS011;2837;50.990;7.124;2024-02-21T12:55:50;157.07;;;10.13;;
5630;SDS011;2837;50.990;7.124;2024-02-21T12:58:16;157.18;;;9.50;;
5630;SDS011;2837;50.990;7.124;2024-02-21T13:00:42;158.25;;;9.77;;
5630;SDS011;2837;50.990;7.124;2024-02-21T13:03:08;159.57;;;10.32;;
5630;SDS011;2837;50.990;7.124;2024-02-21T13:05:35;157.27;;;9.00;;
5630;SDS011;2837;50.990;7.124;2024-02-21T13:08:01;158.17;;;9.63;;
5630;SDS011;2837;50.990;7.124;2024-02-21T13:10:27;158.57;;;10.20;;
5630;SDS011;2837;50.990;7.124;2024-02-21T13:12:53;159.15;;;9.52;;
5630;SDS011;2837;50.990;7.124;2024-02-21T13:15:19;158.50;;;9.20;;
5630;SDS011;2837;50.990;7.124;2024-02-21T13:17:45;158.60;;;9.48;;
5630;SDS011;2837;50.990;7.124;2024-02-21T13:20:10;157.40;;;9.43;;
5630;SDS011;2837;50.990;7.124;2024-02-21T13:22:37;158.52;;;8.63;;
5630;SDS011;2837;50.990;7.124;2024-02-21T13:25:03;156.90;;;9.60;;
5630;SDS011;2837;50.990;7.124;2024-02-21T13:27:29;156.25;;;9.30;;
5630;SDS011;2837;50.990;7.124;2024-02-21T13:29:55;159.30;;;9.70;;
5630;SDS011;2837;50.990;7.124;2024-02-21T13:32:21;158.17;;;9.57;;
5630;SDS011;2837;50.990;7.124;2024-02-21T13:34:47;161.88;;;10.40;;
5630;SDS011;2837;50.990;7.124;2024-02-21T13:37:13;157.60;;;9.27;;
5630;SDS011;2837;50.990;7.124;2024-02-21T13:39:39;157.88;;;9.90;;
5630;SDS011;2837;50.990;7.124;2024-02-21T13:42:05;161.73;;;11.30;;
5630;SDS011;2837;50.990;7.124;2024-02-21T13:44:31;156.45;;;9.70;;
5630;SDS011;2837;50.990;7.124;2024-02-21T13:46:57;155.95;;;10.15;;
5630;SDS011;2837;50.990;7.124;2024-02-21T13:49:23;157.93;;;10.95;;
5630;SDS011;2837;50.990;7.124;2024-02-21T13:51:49;156.80;;;10.40;;
5630;SDS011;2837;50.990;7.124;2024-02-21T13:54:14;155.52;;;8.50;;
5630;SDS011;2837;50.990;7.124;2024-02-21T13:56:44;158.52;;;11.27;;
5630;SDS011;2837;50.990;7.124;2024-02-21T13:59:10;157.07;;;10.57;;
5630;SDS011;2837;50.990;7.124;2024-02-21T14:01:36;156.68;;;10.25;;
5630;SDS011;2837;50.990;7.124;2024-02-21T14:04:02;159.40;;;10.50;;
5630;SDS011;2837;50.990;7.124;2024-02-21T14:06:29;156.82;;;10.00;;
5630;SDS011;2837;50.990;7.124;2024-02-21T14:08:55;156.30;;;9.50;;
5630;SDS011;2837;50.990;7.124;2024-02-21T14:11:20;156.05;;;10.32;;
5630;SDS011;2837;50.990;7.124;2024-02-21T14:13:46;159.07;;;10.70;;
5630;SDS011;2837;50.990;7.124;2024-02-21T14:16:12;156.50;;;10.30;;
5630;SDS011;2837;50.990;7.124;2024-02-21T14:18:40;157.13;;;10.50;;
5630;SDS011;2837;50.990;7.124;2024-02-21T14:21:07;159.37;;;10.33;;
5630;SDS011;2837;50.990;7.124;2024-02-21T14:23:35;157.43;;;10.63;;
5630;SDS011;2837;50.990;7.124;2024-02-21T14:26:02;157.15;;;10.38;;
5630;SDS011;2837;50.990;7.124;2024-02-21T14:28:28;157.80;;;10.48;;
5630;SDS011;2837;50.990;7.124;2024-02-21T14:30:54;158.88;;;10.48;;
5630;SDS011;2837;50.990;7.124;2024-02-21T14:33:22;157.85;;;10.40;;
5630;SDS011;2837;50.990;7.124;2024-02-21T14:35:48;156.48;;;10.65;;
5630;SDS011;2837;50.990;7.124;2024-02-21T14:38:14;155.23;;;8.20;;
5630;SDS011;2837;50.990;7.124;2024-02-21T14:40:40;157.47;;;10.10;;
5630;SDS011;2837;50.990;7.124;2024-02-21T14:43:05;158.00;;;10.20;;
5630;SDS011;2837;50.990;7.124;2024-02-21T14:45:31;158.18;;;10.10;;
5630;SDS011;2837;50.990;7.124;2024-02-21T14:47:57;159.40;;;10.48;;
5630;SDS011;2837;50.990;7.124;2024-02-21T14:50:23;156.85;;;10.10;;
5630;SDS011;2837;50.990;7.124;2024-02-21T14:52:48;156.80;;;10.23;;
5630;SDS011;2837;50.990;7.124;2024-02-21T14:55:15;158.13;;;10.55;;
5630;SDS011;2837;50.990;7.124;2024-02-21T14:57:40;157.30;;;9.50;;
5630;SDS011;2837;50.990;7.124;2024-02-21T15:00:08;157.77;;;10.20;;
5630;SDS011;2837;50.990;7.124;2024-02-21T15:02:35;157.80;;;10.38;;
5630;SDS011;2837;50.990;7.124;2024-02-21T15:05:01;156.60;;;9.43;;
5630;SDS011;2837;50.990;7.124;2024-02-21T15:07:28;157.95;;;9.55;;
5630;SDS011;2837;50.990;7.124;2024-02-21T15:09:54;156.40;;;9.50;;
5630;SDS011;2837;50.990;7.124;2024-02-21T15:12:19;157.77;;;10.57;;
5630;SDS011;2837;50.990;7.124;2024-02-21T15:14:47;156.30;;;9.40;;
5630;SDS011;2837;50.990;7.124;2024-02-21T15:17:12;159.77;;;9.73;;
5630;SDS011;2837;50.990;7.124;2024-02-21T15:19:38;157.50;;;9.90;;
5630;SDS011;2837;50.990;7.124;2024-02-21T15:22:08;158.13;;;10.13;;
5630;SDS011;2837;50.990;7.124;2024-02-21T15:24:37;156.35;;;8.77;;
5630;SDS011;2837;50.990;7.124;2024-02-21T15:27:04;159.60;;;9.73;;
5630;SDS011;2837;50.990;7.124;2024-02-21T15:29:30;155.93;;;9.00;;
5630;SDS011;2837;50.990;7.124;2024-02-21T15:31:55;158.02;;;9.80;;
5630;SDS011;2837;50.990;7.124;2024-02-21T15:34:21;158.73;;;9.53;;
5630;SDS011;2837;50.990;7.124;2024-02-21T15:36:46;158.70;;;9.20;;
5630;SDS011;2837;50.990;7.124;2024-02-21T15:39:12;157.90;;;9.10;;
5630;SDS011;2837;50.990;7.124;2024-02-21T15:41:38;156.48;;;8.90;;
5630;SDS011;2837;50.990;7.124;2024-02-21T15:44:04;157.30;;;9.00;;
5630;SDS011;2837;50.990;7.124;2024-02-21T15:46:30;159.07;;;8.57;;
5630;SDS011;2837;50.990;7.124;2024-02-21T15:49:05;159.65;;;9.45;;
5630;SDS011;2837;50.990;7.124;2024-02-21T15:51:31;157.02;;;9.38;;
5630;SDS011;2837;50.990;7.124;2024-02-21T15:53:58;158.20;;;9.55;;
5630;SDS011;2837;50.990;7.124;2024-02-21T15:56:24;157.38;;;9.38;;
5630;SDS011;2837;50.990;7.124;2024-02-21T15:58:50;156.88;;;9.00;;
5630;SDS011;2837;50.990;7.124;2024-02-21T16:01:16;156.45;;;9.07;;
5630;SDS011;2837;50.990;7.124;2024-02-21T16:03:42;158.35;;;9.18;;
5630;SDS011;2837;50.990;7.124;2024-02-21T16:06:08;157.05;;;9.10;;
5630;SDS011;2837;50.990;7.124;2024-02-21T16:08:34;158.65;;;8.88;;
5630;SDS011;2837;50.990;7.124;2024-02-21T16:11:04;157.00;;;8.68;;
5630;SDS011;2837;50.990;7.124;2024-02-21T16:13:30;157.30;;;8.68;;
5630;SDS011;2837;50.990;7.124;2024-02-21T16:15:55;159.43;;;8.87;;
5630;SDS011;2837;50.990;7.124;2024-02-21T16:18:21;157.27;;;8.85;;
5630;SDS011;2837;50.990;7.124;2024-02-21T16:20:48;159.07;;;9.05;;
5630;SDS011;2837;50.990;7.124;2024-02-21T16:23:14;158.40;;;9.10;;
5630;SDS011;2837;50.990;7.124;2024-02-21T16:25:40;159.88;;;9.10;;
5630;SDS011;2837;50.990;7.124;2024-02-21T16:28:06;157.18;;;8.93;;
5630;SDS011;2837;50.990;7.124;2024-02-21T16:30:36;157.10;;;9.50;;
5630;SDS011;2837;50.990;7.124;2024-02-21T16:33:01;158.40;;;9.10;;
5630;SDS011;2837;50.990;7.124;2024-02-21T16:35:28;157.90;;;8.77;;
5630;SDS011;2837;50.990;7.124;2024-02-21T16:37:54;156.43;;;8.13;;
5630;SDS011;2837;50.990;7.124;2024-02-21T16:40:20;157.68;;;8.45;;
5630;SDS011;2837;50.990;7.124;2024-02-21T16:42:46;160.60;;;9.23;;
5630;SDS011;2837;50.990;7.124;2024-02-21T16:45:14;157.50;;;9.07;;
5630;SDS011;2837;50.990;7.124;2024-02-21T16:47:40;156.20;;;8.63;;
5630;SDS011;2837;50.990;7.124;2024-02-21T16:50:06;157.17;;;8.90;;
5630;SDS011;2837;50.990;7.124;2024-02-21T16:52:33;158.25;;;8.90;;
5630;SDS011;2837;50.990;7.124;2024-02-21T16:54:58;157.73;;;9.18;;
5630;SDS011;2837;50.990;7.124;2024-02-21T16:57:24;156.95;;;8.93;;
5630;SDS011;2837;50.990;7.124;2024-02-21T16:59:50;157.50;;;8.80;;
5630;SDS011;2837;50.990;7.124;2024-02-21T17:02:16;156.60;;;9.30;;
5630;SDS011;2837;50.990;7.124;2024-02-21T17:04:42;156.40;;;9.00;;
5630;SDS011;2837;50.990;7.124;2024-02-21T17:07:08;156.75;;;8.98;;
5630;SDS011;2837;50.990;7.124;2024-02-21T17:09:34;157.60;;;9.40;;
5630;SDS011;2837;50.990;7.124;2024-02-21T17:12:01;164.85;;;8.10;;
5630;SDS011;2837;50.990;7.124;2024-02-21T17:14:29;158.90;;;9.35;;
5630;SDS011;2837;50.990;7.124;2024-02-21T17:16:55;158.05;;;9.65;;
5630;SDS011;2837;50.990;7.124;2024-02-21T17:19:21;160.93;;;9.68;;
5630;SDS011;2837;50.990;7.124;2024-02-21T17:21:46;159.80;;;8.97;;
5630;SDS011;2837;50.990;7.124;2024-02-21T17:24:12;159.07;;;8.87;;
5630;SDS011;2837;50.990;7.124;2024-02-21T17:26:38;157.27;;;9.23;;
5630;SDS011;2837;50.990;7.124;2024-02-21T17:29:04;157.93;;;9.40;;
5630;SDS011;2837;50.990;7.124;2024-02-21T17:31:30;158.00;;;9.97;;
5630;SDS011;2837;50.990;7.124;2024-02-21T17:33:56;158.37;;;9.40;;
5630;SDS011;2837;50.990;7.124;2024-02-21T17:36:22;158.45;;;9.73;;
5630;SDS011;2837;50.990;7.124;2024-02-21T17:38:48;157.75;;;9.43;;
5630;SDS011;2837;50.990;7.124;2024-02-21T17:41:15;157.27;;;9.27;;
5630;SDS011;2837;50.990;7.124;2024-02-21T17:43:42;159.40;;;9.75;;
5630;SDS011;2837;50.990;7.124;2024-02-21T17:46:08;156.77;;;9.30;;
5630;SDS011;2837;50.990;7.124;2024-02-21T17:48:35;157.70;;;9.18;;
5630;SDS011;2837;50.990;7.124;2024-02-21T17:51:01;157.73;;;9.40;;
5630;SDS011;2837;50.990;7.124;2024-02-21T17:53:27;159.52;;;9.10;;
5630;SDS011;2837;50.990;7.124;2024-02-21T17:55:55;158.45;;;9.35;;
5630;SDS011;2837;50.990;7.124;2024-02-21T17:58:21;159.18;;;9.60;;
5630;SDS011;2837;50.990;7.124;2024-02-21T18:00:47;158.38;;;10.10;;
5630;SDS011;2837;50.990;7.124;2024-02-21T18:03:12;159.40;;;9.70;;
5630;SDS011;2837;50.990;7.124;2024-02-21T18:05:40;160.63;;;10.23;;
5630;SDS011;2837;50.990;7.124;2024-02-21T18:08:06;161.50;;;10.37;;
5630;SDS011;2837;50.990;7.124;2024-02-21T18:10:35;158.45;;;9.73;;
5630;SDS011;2837;50.990;7.124;2024-02-21T18:13:03;159.45;;;10.73;;
5630;SDS011;2837;50.990;7.124;2024-02-21T18:15:30;159.90;;;9.80;;
5630;SDS011;2837;50.990;7.124;2024-02-21T18:17:56;160.00;;;10.32;;
5630;SDS011;2837;50.990;7.124;2024-02-21T18:20:22;160.48;;;10.45;;
5630;SDS011;2837;50.990;7.124;2024-02-21T18:22:48;158.90;;;10.17;;
5630;SDS011;2837;50.990;7.124;2024-02-21T18:25:14;159.50;;;9.43;;
5630;SDS011;2837;50.990;7.124;2024-02-21T18:27:40;158.75;;;9.48;;
5630;SDS011;2837;50.990;7.124;2024-02-21T18:30:06;159.93;;;10.37;;
5630;SDS011;2837;50.990;7.124;2024-02-21T18:32:32;160.45;;;10.15;;
5630;SDS011;2837;50.990;7.124;2024-02-21T18:34:59;161.20;;;9.57;;
5630;SDS011;2837;50.990;7.124;2024-02-21T18:37:25;158.35;;;9.50;;
5630;SDS011;2837;50.990;7.124;2024-02-21T18:39:51;160.55;;;9.80;;
5630;SDS011;2837;50.990;7.124;2024-02-21T18:42:17;159.83;;;9.33;;
5630;SDS011;2837;50.990;7.124;2024-02-21T18:44:43;160.27;;;9.50;;
5630;SDS011;2837;50.990;7.124;2024-02-21T18:47:10;159.20;;;9.05;;
5630;SDS011;2837;50.990;7.124;2024-02-21T18:49:37;159.57;;;9.10;;
5630;SDS011;2837;50.990;7.124;2024-02-21T18:52:03;159.98;;;9.00;;
5630;SDS011;2837;50.990;7.124;2024-02-21T18:54:29;158.27;;;8.75;;
5630;SDS011;2837;50.990;7.124;2024-02-21T18:56:55;159.02;;;9.00;;
5630;SDS011;2837;50.990;7.124;2024-02-21T18:59:21;160.00;;;8.70;;
5630;SDS011;2837;50.990;7.124;2024-02-21T19:01:47;161.50;;;9.00;;
5630;SDS011;2837;50.990;7.124;2024-02-21T19:04:13;158.88;;;9.10;;
5630;SDS011;2837;50.990;7.124;2024-02-21T19:06:39;160.85;;;8.90;;
5630;SDS011;2837;50.990;7.124;2024-02-21T19:09:06;161.88;;;9.05;;
5630;SDS011;2837;50.990;7.124;2024-02-21T19:11:32;159.43;;;8.80;;
5630;SDS011;2837;50.990;7.124;2024-02-21T19:13:58;158.45;;;8.75;;
5630;SDS011;2837;50.990;7.124;2024-02-21T19:16:24;160.52;;;8.90;;
5630;SDS011;2837;50.990;7.124;2024-02-21T19:18:51;159.80;;;8.90;;
5630;SDS011;2837;50.990;7.124;2024-02-21T19:21:18;158.98;;;8.63;;
5630;SDS011;2837;50.990;7.124;2024-02-21T19:23:44;160.15;;;8.80;;
5630;SDS011;2837;50.990;7.124;2024-02-21T19:26:10;160.85;;;8.70;;
5630;SDS011;2837;50.990;7.124;2024-02-21T19:28:36;160.35;;;9.10;;
5630;SDS011;2837;50.990;7.124;2024-02-21T19:31:02;158.93;;;8.85;;
5630;SDS011;2837;50.990;7.124;2024-02-21T19:33:28;160.65;;;9.15;;
5630;SDS011;2837;50.990;7.124;2024-02-21T19:35:55;160.90;;;9.20;;
5630;SDS011;2837;50.990;7.124;2024-02-21T19:38:21;160.25;;;9.35;;
5630;SDS011;2837;50.990;7.124;2024-02-21T19:40:51;159.53;;;9.10;;
5630;SDS011;2837;50.990;7.124;2024-02-21T19:43:17;160.40;;;8.50;;
5630;SDS011;2837;50.990;7.124;2024-02-21T19:45:43;159.52;;;9.35;;
5630;SDS011;2837;50.990;7.124;2024-02-21T19:48:11;160.15;;;9.00;;
5630;SDS011;2837;50.990;7.124;2024-02-21T19:50:39;160.48;;;9.10;;
5630;SDS011;2837;50.990;7.124;2024-02-21T19:53:05;158.88;;;8.88;;
5630;SDS011;2837;50.990;7.124;2024-02-21T19:55:31;160.00;;;8.93;;
5630;SDS011;2837;50.990;7.124;2024-02-21T19:57:57;159.90;;;9.10;;
5630;SDS011;2837;50.990;7.124;2024-02-21T20:00:23;158.25;;;8.73;;
5630;SDS011;2837;50.990;7.124;2024-02-21T20:02:49;160.02;;;8.60;;
5630;SDS011;2837;50.990;7.124;2024-02-21T20:05:17;158.80;;;9.10;;
5630;SDS011;2837;50.990;7.124;2024-02-21T20:07:43;159.20;;;9.05;;
5630;SDS011;2837;50.990;7.124;2024-02-21T20:10:09;159.63;;;8.90;;
5630;SDS011;2837;50.990;7.124;2024-02-21T20:12:37;161.65;;;9.20;;
5630;SDS011;2837;50.990;7.124;2024-02-21T20:15:05;159.85;;;8.80;;
5630;SDS011;2837;50.990;7.124;2024-02-21T20:17:31;158.43;;;8.73;;
5630;SDS011;2837;50.990;7.124;2024-02-21T20:19:57;159.07;;;9.18;;
5630;SDS011;2837;50.990;7.124;2024-02-21T20:22:23;159.13;;;9.05;;
5630;SDS011;2837;50.990;7.124;2024-02-21T20:24:49;159.60;;;9.88;;
5630;SDS011;2837;50.990;7.124;2024-02-21T20:27:15;160.43;;;9.10;;
5630;SDS011;2837;50.990;7.124;2024-02-21T20:29:41;160.32;;;8.90;;
5630;SDS011;2837;50.990;7.124;2024-02-21T20:32:07;159.90;;;9.48;;
5630;SDS011;2837;50.990;7.124;2024-02-21T20:34:33;159.70;;;8.80;;
5630;SDS011;2837;50.990;7.124;2024-02-21T20:36:59;160.07;;;8.77;;
5630;SDS011;2837;50.990;7.124;2024-02-21T20:39:25;159.68;;;8.57;;
5630;SDS011;2837;50.990;7.124;2024-02-21T20:41:55;158.70;;;8.80;;
5630;SDS011;2837;50.990;7.124;2024-02-21T20:44:24;159.48;;;8.60;;
5630;SDS011;2837;50.990;7.124;2024-02-21T20:46:50;160.52;;;8.90;;
5630;SDS011;2837;50.990;7.124;2024-02-21T20:49:17;160.30;;;9.30;;
5630;SDS011;2837;50.990;7.124;2024-02-21T20:51:43;161.07;;;9.00;;